Time;durP1;ratioP1;P1;durP2;ratioP2;P2;SDS_P1;SDS_P2;PMS_P1;PMS_P2;Temp;Humidity;BMP_temperature;BMP_pressure;BME280_temperature;BME280_humidity;BME280_pressure;Samples;Min_cycle;Max_cycle;Signal;HPM_P1;HPM_P2
2022/07/12 00:00:33;;;;;;;;;;;;;;;9.02;100.00;91377.81;5031470;28;19917;-62
2022/07/12 00:02:59;;;;;;;;;;;;;;;9.11;100.00;91380.59;5031392;28;19917;-64
2022/07/12 00:05:24;;;;;;;;;;;;;;;9.21;100.00;91381.25;5031423;28;19917;-64
2022/07/12 00:07:49;;;;;;;;;;;;;;;9.25;100.00;91378.81;5031210;28;19967;-64
2022/07/12 00:10:14;;;;;;;;;;;;;;;9.32;100.00;91365.19;5031206;28;19913;-64
2022/07/12 00:12:40;;;;;;;;;;;;;;;9.35;100.00;91380.53;5031502;28;19913;-64
2022/07/12 00:15:06;;;;;;;;;;;;;;;9.42;100.00;91375.63;5031232;28;20372;-64
2022/07/12 00:17:31;;;;;;;;;;;;;;;9.35;100.00;91375.22;5031525;28;19913;-64
2022/07/12 00:19:56;;;;;;;;;;;;;;;9.29;100.00;91385.09;5031233;28;19913;-63
2022/07/12 00:22:22;;;;;;;;;;;;;;;9.27;100.00;91381.94;5013384;28;19913;-64
2022/07/12 00:24:47;;;;;;;;;;;;;;;9.22;100.00;91380.19;5031093;28;20394;-63
2022/07/12 00:27:13;;;;;;;;;;;;;;;9.23;100.00;91376.44;5031507;28;20014;-64
2022/07/12 00:29:38;;;;;;;;;;;;;;;9.24;100.00;91387.84;5031278;28;20063;-63
2022/07/12 00:32:04;;;;;;;;;;;;;;;9.26;100.00;91386.47;5031238;28;19913;-64
2022/07/12 00:34:29;;;;;;;;;;;;;;;9.22;100.00;91385.47;5031191;28;19913;-64
2022/07/12 00:36:54;;;;;;;;;;;;;;;9.28;100.00;91384.31;5031249;28;19913;-64
2022/07/12 00:39:20;;;;;;;;;;;;;;;9.28;100.00;91384.31;5030920;28;20000;-64
2022/07/12 00:41:47;;;;;;;;;;;;;;;9.25;100.00;91382.25;5031208;28;19949;-64
2022/07/12 00:44:13;;;;;;;;;;;;;;;9.30;100.00;91373.41;5031002;28;20445;-63
2022/07/12 00:46:38;;;;;;;;;;;;;;;9.27;100.00;91384.59;5031449;28;19913;-64
2022/07/12 00:49:03;;;;;;;;;;;;;;;9.20;100.00;91379.69;5034745;28;19913;-64
2022/07/12 00:51:29;;;;;;;;;;;;;;;9.20;100.00;91377.03;5034739;28;20371;-63
2022/07/12 00:53:56;;;;;;;;;;;;;;;9.18;100.00;91381.06;5034605;28;19928;-64
2022/07/12 00:56:21;;;;;;;;;;;;;;;9.13;100.00;91379.22;5034473;28;20287;-63
2022/07/12 00:58:47;;;;;;;;;;;;;;;9.14;100.00;91370.19;5034587;28;19970;-63
2022/07/12 01:01:12;;;;;;;;;;;;;;;9.07;100.00;91371.66;5034552;28;19916;-64
2022/07/12 01:03:38;;;;;;;;;;;;;;;9.01;100.00;91365.63;5034292;28;19967;-64
2022/07/12 01:06:04;;;;;;;;;;;;;;;8.94;100.00;91367.84;5034493;28;19969;-64
2022/07/12 01:08:30;;;;;;;;;;;;;;;8.91;100.00;91363.91;5034334;28;20363;-64
2022/07/12 01:10:56;;;;;;;;;;;;;;;8.93;100.00;91363.63;5034221;28;19913;-64
2022/07/12 01:13:21;;;;;;;;;;;;;;;8.93;100.00;91369.72;5034279;28;19920;-64
2022/07/12 01:15:48;;;;;;;;;;;;;;;8.92;100.00;91364.69;5034321;28;19946;-63
2022/07/12 01:18:14;;;;;;;;;;;;;;;8.93;100.00;91361.75;5034272;28;19917;-64
2022/07/12 01:20:40;;;;;;;;;;;;;;;8.85;100.00;91353.66;5034013;28;19913;-64
2022/07/12 01:23:06;;;;;;;;;;;;;;;8.86;100.00;91361.34;5034118;28;19913;-64
2022/07/12 01:25:31;;;;;;;;;;;;;;;8.82;100.00;91352.34;5034005;28;20437;-65
2022/07/12 01:27:57;;;;;;;;;;;;;;;8.83;100.00;91361.88;5034113;28;19963;-64
2022/07/12 01:30:22;;;;;;;;;;;;;;;8.79;100.00;91363.53;5033924;28;19975;-64
2022/07/12 01:32:48;;;;;;;;;;;;;;;8.77;100.00;91362.25;5034163;28;19971;-64
2022/07/12 01:35:14;;;;;;;;;;;;;;;8.75;100.00;91361.75;5033940;28;19967;-64
2022/07/12 01:37:43;;;;;;;;;;;;;;;8.74;100.00;91365.50;5033906;28;19917;-65
2022/07/12 01:40:09;;;;;;;;;;;;;;;8.74;100.00;91360.19;5034080;28;19929;-64
2022/07/12 01:42:35;;;;;;;;;;;;;;;8.79;100.00;91368.06;5033822;28;19979;-64
2022/07/12 01:45:01;;;;;;;;;;;;;;;8.81;100.00;91368.56;5033605;28;19919;-64
2022/07/12 01:47:30;;;;;;;;;;;;;;;8.75;100.00;91364.41;5033711;28;20451;-63
2022/07/12 01:49:56;;;;;;;;;;;;;;;8.75;100.00;91367.06;5033583;28;19963;-64
2022/07/12 01:52:22;;;;;;;;;;;;;;;8.73;100.00;91355.94;5033496;28;19913;-63
2022/07/12 01:54:47;;;;;;;;;;;;;;;8.69;100.00;91353.88;5015794;28;20204;-64
2022/07/12 01:57:13;;;;;;;;;;;;;;;8.66;100.00;91361.59;5033340;28;19921;-63
2022/07/12 01:59:39;;;;;;;;;;;;;;;8.68;100.00;91365.56;5033087;28;19920;-63
2022/07/12 02:02:05;;;;;;;;;;;;;;;8.62;100.00;91355.28;5033417;28;20023;-64
2022/07/12 02:04:30;;;;;;;;;;;;;;;8.62;100.00;91356.09;5035056;28;20452;-64
2022/07/12 02:06:56;;;;;;;;;;;;;;;8.62;100.00;91356.09;5052981;28;19916;-64
2022/07/12 02:09:21;;;;;;;;;;;;;;;8.64;100.00;91351.28;5053144;28;19924;-64
2022/07/12 02:11:47;;;;;;;;;;;;;;;8.66;100.00;91346.47;5053087;28;19935;-65
2022/07/12 02:14:12;;;;;;;;;;;;;;;8.65;100.00;91350.19;5053240;28;19924;-65
2022/07/12 02:16:38;;;;;;;;;;;;;;;8.63;100.00;91349.69;5053098;28;20406;-64
2022/07/12 02:19:03;;;;;;;;;;;;;;;8.63;100.00;91352.34;5161853;23;19956;-64
2022/07/12 02:21:28;;;;;;;;;;;;;;;8.63;100.00;91351.56;4993720;28;20302;-64
2022/07/12 02:23:54;;;;;;;;;;;;;;;8.61;100.00;91354.50;4993677;28;19914;-64
2022/07/12 02:26:19;;;;;;;;;;;;;;;8.56;100.00;91343.97;4993670;28;19933;-65
2022/07/12 02:28:45;;;;;;;;;;;;;;;8.48;100.00;91344.59;4993720;28;19969;-64
2022/07/12 02:31:10;;;;;;;;;;;;;;;8.49;100.00;91346.16;4993474;28;19918;-64
2022/07/12 02:33:36;;;;;;;;;;;;;;;8.43;100.00;91347.31;4993510;28;19914;-64
2022/07/12 02:36:01;;;;;;;;;;;;;;;8.38;100.00;91358.00;4993380;28;19914;-64
2022/07/12 02:38:27;;;;;;;;;;;;;;;8.35;100.00;91363.84;4993276;28;19921;-65
2022/07/12 02:40:55;;;;;;;;;;;;;;;8.36;100.00;91362.78;4993304;28;19945;-64
2022/07/12 02:43:28;;;;;;;;;;;;;;;8.38;100.00;91366.75;4993150;28;19921;-64
2022/07/12 02:45:56;;;;;;;;;;;;;;;8.33;100.00;91365.97;4993266;28;19918;-64
2022/07/12 02:48:21;;;;;;;;;;;;;;;8.30;100.00;91371.84;4993047;28;19913;-64
2022/07/12 02:50:46;;;;;;;;;;;;;;;8.31;100.00;91371.56;4993109;28;19920;-64
2022/07/12 02:53:12;;;;;;;;;;;;;;;8.32;100.00;91359.09;4993173;28;19917;-64
2022/07/12 02:55:38;;;;;;;;;;;;;;;8.34;100.00;91364.91;4993172;28;20008;-64
2022/07/12 02:58:05;;;;;;;;;;;;;;;8.41;100.00;91368.03;4992945;28;19999;-64
2022/07/12 03:00:31;;;;;;;;;;;;;;;8.48;100.00;91375.63;4993244;28;19914;-64
2022/07/12 03:02:56;;;;;;;;;;;;;;;8.46;100.00;91373.25;4975521;28;20380;-64
2022/07/12 03:05:22;;;;;;;;;;;;;;;8.49;100.00;91380.63;4992918;28;20376;-64
2022/07/12 03:07:47;;;;;;;;;;;;;;;8.49;100.00;91385.94;4992733;28;19918;-64
2022/07/12 03:10:13;;;;;;;;;;;;;;;8.57;100.00;91381.88;4992064;28;19917;-64
2022/07/12 03:12:38;;;;;;;;;;;;;;;8.54;100.00;91380.59;4993051;28;19953;-64
2022/07/12 03:15:04;;;;;;;;;;;;;;;8.55;100.00;91387.47;4992845;28;20319;-65
2022/07/12 03:17:31;;;;;;;;;;;;;;;8.57;100.00;91390.63;4992646;28;19918;-65
2022/07/12 03:19:56;;;;;;;;;;;;;;;8.59;100.00;91398.28;4992385;28;19922;-64
2022/07/12 03:22:21;;;;;;;;;;;;;;;8.54;100.00;91396.50;4992664;28;20383;-64
2022/07/12 03:24:47;;;;;;;;;;;;;;;8.54;100.00;91398.38;4992641;28;19991;-64
2022/07/12 03:27:12;;;;;;;;;;;;;;;8.59;100.00;91396.44;5007716;28;19917;-64
2022/07/12 03:29:37;;;;;;;;;;;;;;;8.55;100.00;91398.09;4992273;28;19918;-64
2022/07/12 03:32:03;;;;;;;;;;;;;;;8.53;100.00;91399.44;4992473;28;20004;-64
2022/07/12 03:34:28;;;;;;;;;;;;;;;8.53;100.00;91394.13;4992828;28;19914;-64
2022/07/12 03:36:54;;;;;;;;;;;;;;;8.50;100.00;91397.34;4992443;28;19913;-64
2022/07/12 03:39:19;;;;;;;;;;;;;;;8.49;100.00;91399.19;4992582;28;19921;-64
2022/07/12 03:41:44;;;;;;;;;;;;;;;8.57;100.00;91398.59;4992345;28;20376;-64
2022/07/12 03:44:10;;;;;;;;;;;;;;;8.64;100.00;91387.63;4992221;28;19913;-64
2022/07/12 03:46:35;;;;;;;;;;;;;;;8.68;100.00;91392.09;4992118;28;19917;-64
2022/07/12 03:49:00;;;;;;;;;;;;;;;8.74;100.00;91399.97;4991984;28;19914;-64
2022/07/12 03:51:26;;;;;;;;;;;;;;;8.78;100.00;91395.66;4992137;28;19914;-64
2022/07/12 03:53:51;;;;;;;;;;;;;;;8.84;100.00;91391.88;4992154;28;19914;-64
2022/07/12 03:59:00;;;;;;;;;;;;;;;9.03;100.00;91392.69;4992060;28;19937;-64
2022/07/12 04:01:25;;;;;;;;;;;;;;;9.15;100.00;91395.69;4992192;28;20388;-64
2022/07/12 04:03:51;;;;;;;;;;;;;;;9.25;100.00;91390.22;4992118;28;19972;-64
2022/07/12 04:06:16;;;;;;;;;;;;;;;9.35;100.00;91396.47;4992129;28;19920;-64
2022/07/12 04:08:41;;;;;;;;;;;;;;;9.44;100.00;91381.44;4992061;28;19914;-64
2022/07/12 04:11:07;;;;;;;;;;;;;;;9.45;100.00;91385.66;4991964;28;19913;-64
2022/07/12 04:13:33;;;;;;;;;;;;;;;9.56;100.00;91384.44;4992263;28;19924;-63
2022/07/12 04:15:58;;;;;;;;;;;;;;;9.60;100.00;91386.19;4991909;28;19918;-64
2022/07/12 04:18:23;;;;;;;;;;;;;;;9.73;100.00;91389.97;4991978;28;19925;-64
2022/07/12 04:20:49;;;;;;;;;;;;;;;9.91;100.00;91402.41;4992700;28;19913;-64
2022/07/12 04:23:14;;;;;;;;;;;;;;;10.04;100.00;91405.41;4995954;28;20438;-65
2022/07/12 04:25:40;;;;;;;;;;;;;;;10.06;100.00;91409.34;4996078;28;19914;-65
2022/07/12 04:28:05;;;;;;;;;;;;;;;10.18;100.00;91416.84;4995894;28;19913;-65
2022/07/12 04:30:30;;;;;;;;;;;;;;;10.34;100.00;91404.88;4995753;28;19914;-64
2022/07/12 04:32:55;;;;;;;;;;;;;;;10.60;100.00;91412.38;4995666;28;20027;-64
2022/07/12 04:35:21;;;;;;;;;;;;;;;10.82;100.00;91409.78;4995704;28;20004;-65
2022/07/12 04:37:46;;;;;;;;;;;;;;;11.19;100.00;91418.59;4995726;28;20032;-65
2022/07/12 04:40:11;;;;;;;;;;;;;;;11.36;100.00;91424.06;4995632;28;20418;-66
2022/07/12 04:42:37;;;;;;;;;;;;;;;11.55;100.00;91411.38;4995555;28;19917;-65
2022/07/12 04:45:02;;;;;;;;;;;;;;;11.59;100.00;91417.69;4995561;28;19917;-65
2022/07/12 04:47:27;;;;;;;;;;;;;;;11.57;100.00;91409.22;4995444;28;19922;-65
2022/07/12 04:49:53;;;;;;;;;;;;;;;11.60;100.00;91411.25;4995261;28;19968;-66
2022/07/12 04:52:18;;;;;;;;;;;;;;;11.92;100.00;91412.13;4995360;28;19920;-65
2022/07/12 04:54:43;;;;;;;;;;;;;;;12.13;100.00;91415.06;4995245;28;19917;-66
2022/07/12 04:57:08;;;;;;;;;;;;;;;12.43;100.00;91422.28;4995261;28;20299;-66
2022/07/12 04:59:34;;;;;;;;;;;;;;;12.83;100.00;91417.75;4995140;28;19914;-65
2022/07/12 05:02:00;;;;;;;;;;;;;;;13.04;97.08;91422.50;4995125;28;19914;-66
2022/07/12 05:04:25;;;;;;;;;;;;;;;13.12;95.95;91414.53;4961630;28;19914;-66
2022/07/12 05:06:52;;;;;;;;;;;;;;;13.07;95.58;91419.22;4995170;28;19921;-65
2022/07/12 05:09:17;;;;;;;;;;;;;;;13.09;95.32;91420.47;4995072;28;19920;-65
2022/07/12 05:11:42;;;;;;;;;;;;;;;12.71;100.00;91419.44;4994933;28;19917;-65
2022/07/12 05:14:07;;;;;;;;;;;;;;;12.73;100.00;91411.91;4994903;28;19917;-65
2022/07/12 05:16:33;;;;;;;;;;;;;;;12.98;100.00;91413.06;4977382;28;19921;-65
2022/07/12 05:18:59;;;;;;;;;;;;;;;13.31;98.25;91422.28;4994596;28;19939;-65
2022/07/12 05:21:25;;;;;;;;;;;;;;;13.46;95.05;91426.38;4994855;28;20004;-65
2022/07/12 05:23:50;;;;;;;;;;;;;;;13.54;94.54;91419.47;4994627;28;20443;-65
2022/07/12 05:26:15;;;;;;;;;;;;;;;13.67;93.31;91421.19;4994723;28;19960;-66
2022/07/12 05:28:41;;;;;;;;;;;;;;;13.74;94.19;91422.31;4994409;28;19914;-65
2022/07/12 05:31:08;;;;;;;;;;;;;;;13.95;92.62;91424.34;4994525;28;19960;-65
2022/07/12 05:33:34;;;;;;;;;;;;;;;14.20;95.04;91425.38;4993821;28;20375;-64
2022/07/12 05:35:59;;;;;;;;;;;;;;;14.49;93.54;91422.03;4994526;28;19913;-65
2022/07/12 05:38:25;;;;;;;;;;;;;;;14.87;88.57;91424.75;4994530;28;19921;-66
2022/07/12 05:40:50;;;;;;;;;;;;;;;14.93;83.12;91420.78;4994470;28;19918;-66
2022/07/12 05:43:15;;;;;;;;;;;;;;;15.16;81.77;91418.63;4994502;28;19924;-66
2022/07/12 05:45:42;;;;;;;;;;;;;;;15.37;78.77;91418.66;4994367;28;19979;-66
2022/07/12 05:48:07;;;;;;;;;;;;;;;15.57;76.78;91417.88;4994293;28;20373;-65
2022/07/12 05:50:32;;;;;;;;;;;;;;;15.79;76.23;91417.59;5009166;28;20024;-66
2022/07/12 05:55:41;;;;;;;;;;;;;;;17.70;73.89;91418.16;4994019;28;19921;-65
2022/07/12 05:58:06;;;;;;;;;;;;;;;18.06;69.52;91423.44;4993962;28;20295;-65
2022/07/12 06:00:32;;;;;;;;;;;;;;;20.38;63.48;91418.25;4994104;28;19937;-66
2022/07/12 06:02:58;;;;;;;;;;;;;;;22.85;53.18;91424.41;4994140;28;19925;-66
2022/07/12 06:05:23;;;;;;;;;;;;;;;22.54;51.93;91422.88;4993953;28;20410;-66
2022/07/12 06:07:48;;;;;;;;;;;;;;;22.26;51.67;91410.56;4993929;28;20391;-66
2022/07/12 06:10:14;;;;;;;;;;;;;;;22.15;52.07;91411.56;4993868;28;19918;-66
2022/07/12 06:12:39;;;;;;;;;;;;;;;24.89;47.12;91413.81;4988335;28;20008;-66
2022/07/12 06:15:06;;;;;;;;;;;;;;;26.79;42.39;91422.31;4991571;28;19945;-65
2022/07/12 06:17:32;;;;;;;;;;;;;;;26.00;42.25;91409.28;4993868;28;20391;-65
2022/07/12 06:19:57;;;;;;;;;;;;;;;25.98;43.82;91413.16;4993418;28;20000;-65
2022/07/12 06:22:23;;;;;;;;;;;;;;;27.66;39.37;91413.28;4993565;28;20414;-66
2022/07/12 06:24:48;;;;;;;;;;;;;;;27.97;39.31;91416.16;4993464;28;19922;-66
2022/07/12 06:27:13;;;;;;;;;;;;;;;27.69;39.56;91417.94;4993221;28;20000;-65
2022/07/12 06:29:39;;;;;;;;;;;;;;;28.34;37.87;91415.44;4992969;28;19914;-65
2022/07/12 06:32:04;;;;;;;;;;;;;;;27.73;39.52;91415.97;4993317;28;19945;-66
2022/07/12 06:34:29;;;;;;;;;;;;;;;29.87;35.23;91416.25;4993247;28;20014;-66
2022/07/12 06:36:55;;;;;;;;;;;;;;;28.69;36.13;91411.53;4993317;28;19920;-66
2022/07/12 06:39:20;;;;;;;;;;;;;;;29.51;34.41;91416.81;4993091;28;19914;-70
2022/07/12 06:41:45;;;;;;;;;;;;;;;27.07;35.29;91415.22;4993087;28;19917;-71
2022/07/12 06:44:11;;;;;;;;;;;;;;;24.26;39.34;91404.97;4992755;28;19914;-67
2022/07/12 06:46:36;;;;;;;;;;;;;;;26.68;36.75;91412.66;4992940;28;19922;-68
2022/07/12 06:49:01;;;;;;;;;;;;;;;26.75;35.78;91410.66;4992930;28;20012;-69
2022/07/12 06:51:27;;;;;;;;;;;;;;;26.58;37.96;91402.53;4992875;28;19914;-67
2022/07/12 06:53:52;;;;;;;;;;;;;;;28.74;35.20;91404.84;4975347;28;20056;-70
2022/07/12 06:56:17;;;;;;;;;;;;;;;27.01;36.45;91405.88;4992715;28;19934;-66
2022/07/12 06:58:43;;;;;;;;;;;;;;;24.24;39.40;91401.09;4992276;28;19925;-66
2022/07/12 07:01:08;;;;;;;;;;;;;;;24.51;39.53;91405.13;4992716;28;20375;-66
2022/07/12 07:03:33;;;;;;;;;;;;;;;23.90;40.09;91409.44;4992325;28;19918;-66
2022/07/12 07:05:58;;;;;;;;;;;;;;;24.01;38.84;91410.31;4992431;28;19913;-66
2022/07/12 07:08:24;;;;;;;;;;;;;;;25.18;37.13;91410.03;4992439;28;19913;-65
2022/07/12 07:10:49;;;;;;;;;;;;;;;23.96;40.10;91407.16;4992342;28;20360;-66
2022/07/12 07:13:14;;;;;;;;;;;;;;;22.88;41.06;91413.63;4992046;28;19913;-65
2022/07/12 07:15:40;;;;;;;;;;;;;;;23.14;40.75;91417.34;4992358;28;19914;-66
2022/07/12 07:18:06;;;;;;;;;;;;;;;21.62;43.41;91411.56;4991924;28;19992;-66
2022/07/12 07:20:31;;;;;;;;;;;;;;;21.37;47.35;91416.59;4992271;28;19945;-65
2022/07/12 07:22:57;;;;;;;;;;;;;;;20.50;46.28;91418.91;4992259;28;19913;-65
2022/07/12 07:25:22;;;;;;;;;;;;;;;20.27;45.34;91415.34;4992209;28;19924;-64
2022/07/12 07:27:47;;;;;;;;;;;;;;;20.64;47.81;91408.34;4991635;28;19917;-64
2022/07/12 07:32:57;;;;;;;;;;;;;;;20.69;46.31;91420.03;4992124;28;20357;-66
2022/07/12 07:35:22;;;;;;;;;;;;;;;20.99;46.43;91420.97;4992007;28;20008;-66
2022/07/12 07:37:47;;;;;;;;;;;;;;;21.43;47.53;91418.63;4991870;28;19917;-65
2022/07/12 07:40:13;;;;;;;;;;;;;;;23.51;42.83;91414.56;4992041;28;19932;-66
2022/07/12 07:42:38;;;;;;;;;;;;;;;23.51;42.75;91419.97;4991498;28;19914;-66
2022/07/12 07:45:06;;;;;;;;;;;;;;;22.49;43.11;91417.78;4992021;28;19914;-67
2022/07/12 07:47:31;;;;;;;;;;;;;;;22.50;43.23;91416.63;4992098;28;19913;-66
2022/07/12 07:49:57;;;;;;;;;;;;;;;21.14;44.35;91416.56;4991773;28;19914;-67
2022/07/12 07:52:22;;;;;;;;;;;;;;;23.35;42.26;91417.53;4991883;28;19924;-65
2022/07/12 07:54:47;;;;;;;;;;;;;;;23.84;41.09;91397.38;4991812;28;19973;-68
2022/07/12 07:57:13;;;;;;;;;;;;;;;23.25;41.45;91408.16;4997127;28;19917;-67
2022/07/12 07:59:38;;;;;;;;;;;;;;;24.02;41.06;91409.13;4998380;28;19917;-67
2022/07/12 08:02:03;;;;;;;;;;;;;;;22.77;42.14;91415.41;4997964;28;19917;-66
2022/07/12 08:04:29;;;;;;;;;;;;;;;21.17;45.83;91413.16;4998161;28;19914;-67
2022/07/12 08:06:56;;;;;;;;;;;;;;;20.06;53.84;91407.59;4998279;28;19997;-66
2022/07/12 08:09:21;;;;;;;;;;;;;;;21.00;45.86;91406.31;4998225;28;19956;-66
2022/07/12 08:11:47;;;;;;;;;;;;;;;20.38;47.34;91407.44;4997660;28;19949;-66
2022/07/12 08:14:12;;;;;;;;;;;;;;;19.67;47.83;91414.84;4998118;28;19918;-65
2022/07/12 08:16:38;;;;;;;;;;;;;;;18.99;48.54;91415.94;4997871;28;19918;-65
2022/07/12 08:19:04;;;;;;;;;;;;;;;21.39;48.33;91408.91;4997949;28;20335;-66
2022/07/12 08:21:29;;;;;;;;;;;;;;;25.16;41.29;91401.47;4997792;28;19948;-66
2022/07/12 08:23:55;;;;;;;;;;;;;;;26.60;37.18;91408.38;4998148;28;19964;-66
2022/07/12 08:26:21;;;;;;;;;;;;;;;24.29;40.52;91404.25;4997807;28;20840;-66
2022/07/12 08:28:46;;;;;;;;;;;;;;;24.62;38.70;91397.81;4997857;28;19917;-66
2022/07/12 08:31:14;;;;;;;;;;;;;;;25.27;40.80;91396.81;4997959;28;19913;-67
2022/07/12 08:33:40;;;;;;;;;;;;;;;26.25;36.49;91399.09;4998000;28;19930;-66
2022/07/12 08:36:06;;;;;;;;;;;;;;;27.26;35.81;91394.81;4997987;28;19917;-65
2022/07/12 08:38:33;;;;;;;;;;;;;;;28.61;33.45;91388.97;4997780;28;19920;-66
2022/07/12 08:40:59;;;;;;;;;;;;;;;28.64;34.78;91393.59;4997560;28;20292;-67
2022/07/12 08:43:24;;;;;;;;;;;;;;;26.49;36.53;91387.34;4997906;28;19913;-66
2022/07/12 08:45:49;;;;;;;;;;;;;;;28.07;36.03;91392.63;4997831;28;20455;-66
2022/07/12 08:48:15;;;;;;;;;;;;;;;30.95;32.56;91389.22;4997880;28;19920;-66
2022/07/12 08:50:40;;;;;;;;;;;;;;;31.81;30.45;91398.38;4997725;28;20419;-66
2022/07/12 08:53:09;;;;;;;;;;;;;;;30.84;31.30;91385.16;4997835;28;19917;-66
2022/07/12 08:55:35;;;;;;;;;;;;;;;29.71;32.07;91385.94;4997826;28;19913;-66
2022/07/12 08:58:02;;;;;;;;;;;;;;;30.87;33.21;91381.53;4997164;28;19913;-66
2022/07/12 09:00:27;;;;;;;;;;;;;;;30.50;31.41;91386.16;4997748;28;19968;-66
2022/07/12 09:02:54;;;;;;;;;;;;;;;27.90;34.40;91377.94;4997749;28;19917;-66
2022/07/12 09:05:21;;;;;;;;;;;;;;;24.23;38.04;91367.69;4997650;28;20415;-66
2022/07/12 09:07:47;;;;;;;;;;;;;;;22.70;40.91;91371.91;4994759;28;19918;-65
2022/07/12 09:10:13;;;;;;;;;;;;;;;25.88;37.71;91370.38;4994715;28;20020;-66
2022/07/12 09:12:40;;;;;;;;;;;;;;;27.21;35.66;91367.91;4993983;28;19915;-66
2022/07/12 09:15:12;;;;;;;;;;;;;;;27.00;35.04;91366.06;4994433;28;20438;-66
2022/07/12 09:17:38;;;;;;;;;;;;;;;28.26;34.14;91365.50;4994403;28;20008;-66
2022/07/12 09:20:03;;;;;;;;;;;;;;;29.33;32.98;91369.63;4994209;28;20009;-66
2022/07/12 09:22:29;;;;;;;;;;;;;;;28.26;33.12;91370.97;4994361;28;20017;-66
2022/07/12 09:24:54;;;;;;;;;;;;;;;27.71;34.34;91363.66;4994371;28;19921;-66
2022/07/12 09:27:26;;;;;;;;;;;;;;;26.16;35.57;91355.09;4994194;28;19917;-66
2022/07/12 09:29:51;;;;;;;;;;;;;;;27.67;33.50;91354.72;4994224;28;19913;-66
2022/07/12 09:37:46;;;;;;;;;;;;;;;29.58;32.27;91354.81;4994149;28;19920;-67
2022/07/12 09:40:12;;;;;;;;;;;;;;;29.29;32.44;91343.47;4994240;28;19914;-66
2022/07/12 09:42:38;;;;;;;;;;;;;;;28.24;33.40;91348.66;5009170;28;20745;-66
2022/07/12 09:45:05;;;;;;;;;;;;;;;28.00;32.80;91349.72;4976675;28;20376;-66
2022/07/12 09:47:32;;;;;;;;;;;;;;;27.41;34.72;91355.28;4993998;28;19914;-66
2022/07/12 09:49:57;;;;;;;;;;;;;;;27.36;35.71;91352.97;4993856;28;19921;-66
2022/07/12 09:52:24;;;;;;;;;;;;;;;27.56;36.02;91345.78;4993936;28;19973;-66
2022/07/12 09:54:52;;;;;;;;;;;;;;;27.81;34.29;91331.16;4993776;28;19914;-66
2022/07/12 09:57:21;;;;;;;;;;;;;;;27.26;34.07;91343.66;4993856;28;19917;-66
2022/07/12 09:59:50;;;;;;;;;;;;;;;28.38;33.82;91346.97;4993758;28;20427;-66
2022/07/12 10:02:16;;;;;;;;;;;;;;;28.46;33.66;91340.25;4993752;28;19913;-66
2022/07/12 10:04:42;;;;;;;;;;;;;;;28.23;33.36;91338.91;4993633;28;20402;-67
2022/07/12 10:07:08;;;;;;;;;;;;;;;28.61;33.22;91333.44;4993626;28;20745;-67
2022/07/12 10:09:35;;;;;;;;;;;;;;;29.04;33.16;91335.63;4993577;28;20008;-66
2022/07/12 10:12:00;;;;;;;;;;;;;;;28.46;34.82;91332.03;4993654;28;19960;-66
2022/07/12 10:14:26;;;;;;;;;;;;;;;27.14;36.74;91330.47;4993622;28;19957;-66
2022/07/12 10:16:52;;;;;;;;;;;;;;;27.54;34.85;91337.22;4993602;28;19914;-66
2022/07/12 10:19:28;;;;;;;;;;;;;;;29.84;33.16;91331.28;4993002;28;19965;-67
2022/07/12 10:21:54;;;;;;;;;;;;;;;28.41;33.61;91336.03;4993538;28;19922;-66
2022/07/12 10:24:44;;;;;;;;;;;;;;;28.47;33.70;91328.13;4972863;28;19918;-66
2022/07/12 10:27:12;;;;;;;;;;;;;;;28.86;34.31;91333.09;4965815;28;19914;-66
2022/07/12 10:29:38;;;;;;;;;;;;;;;27.69;34.13;91327.75;4973599;28;19918;-65
2022/07/12 10:32:19;;;;;;;;;;;;;;;27.06;36.15;91332.50;4973752;28;19914;-65
2022/07/12 10:34:57;;;;;;;;;;;;;;;27.26;36.24;91324.53;4973606;28;19914;-66
2022/07/12 10:37:22;;;;;;;;;;;;;;;28.14;35.02;91327.69;4973619;28;19949;-66
2022/07/12 10:40:06;;;;;;;;;;;;;;;26.67;35.80;91321.00;4973133;28;19964;-67
2022/07/12 10:42:31;;;;;;;;;;;;;;;27.35;36.71;91329.56;4973461;28;19914;-66
2022/07/12 10:45:09;;;;;;;;;;;;;;;25.31;38.68;91313.16;4973453;28;19917;-67
2022/07/12 10:47:52;;;;;;;;;;;;;;;23.49;40.88;91319.88;4973297;28;19969;-65
2022/07/12 10:50:17;;;;;;;;;;;;;;;24.94;38.75;91318.19;4973199;28;20390;-66
2022/07/12 10:52:43;;;;;;;;;;;;;;;26.34;37.14;91325.78;4973514;28;20392;-65
2022/07/12 10:55:11;;;;;;;;;;;;;;;27.57;35.98;91317.25;4955550;28;19969;-65
2022/07/12 10:57:49;;;;;;;;;;;;;;;26.95;35.95;91320.06;4973186;28;19925;-66
2022/07/12 11:00:15;;;;;;;;;;;;;;;27.74;34.52;91313.63;4973297;28;20444;-66
2022/07/12 11:02:40;;;;;;;;;;;;;;;28.20;33.76;91314.31;4973196;28;20004;-67
2022/07/12 11:05:06;;;;;;;;;;;;;;;28.30;34.30;91313.47;4973457;28;20376;-66
2022/07/12 11:07:31;;;;;;;;;;;;;;;28.25;34.57;91316.63;4973402;28;19914;-66
2022/07/12 11:09:57;;;;;;;;;;;;;;;28.43;33.89;91310.97;4973151;28;19972;-66
2022/07/12 11:12:31;;;;;;;;;;;;;;;26.99;35.15;91315.38;4973350;28;19957;-66
2022/07/12 11:15:00;;;;;;;;;;;;;;;26.95;35.30;91312.63;4956312;28;20410;-66
2022/07/12 11:17:30;;;;;;;;;;;;;;;27.15;35.22;91319.19;4973192;28;19914;-66
2022/07/12 11:20:09;;;;;;;;;;;;;;;27.02;35.23;91320.06;4973042;28;19962;-66
2022/07/12 11:22:35;;;;;;;;;;;;;;;28.83;35.42;91317.47;4955892;28;20300;-66
2022/07/12 11:25:02;;;;;;;;;;;;;;;29.58;32.84;91321.91;4973044;28;20372;-66
2022/07/12 11:27:27;;;;;;;;;;;;;;;29.29;32.34;91316.06;4972943;28;19925;-66
2022/07/12 11:29:56;;;;;;;;;;;;;;;28.14;33.69;91322.22;4972847;28;19918;-66
2022/07/12 11:32:32;;;;;;;;;;;;;;;29.04;33.41;91316.47;4972593;28;20293;-66
2022/07/12 11:34:58;;;;;;;;;;;;;;;29.59;32.07;91310.53;4972925;28;20368;-66
2022/07/12 11:37:23;;;;;;;;;;;;;;;29.80;32.09;91312.13;4972939;28;19942;-66
2022/07/12 11:39:50;;;;;;;;;;;;;;;29.19;30.94;91307.63;4972930;28;19914;-66
2022/07/12 11:42:16;;;;;;;;;;;;;;;29.09;32.44;91302.28;4980016;28;19940;-66
2022/07/12 11:44:45;;;;;;;;;;;;;;;27.66;32.59;91303.94;5011355;28;20314;-67
2022/07/12 11:47:10;;;;;;;;;;;;;;;28.31;32.28;91293.91;5011774;28;19981;-67
2022/07/12 11:49:36;;;;;;;;;;;;;;;29.60;31.35;91295.63;5011726;28;20020;-66
2022/07/12 11:52:04;;;;;;;;;;;;;;;29.71;30.86;91306.41;5011664;28;19914;-66
2022/07/12 11:54:30;;;;;;;;;;;;;;;30.22;31.03;91296.88;5011798;28;19943;-67
2022/07/12 11:57:08;;;;;;;;;;;;;;;30.57;30.69;91302.88;5012039;28;19918;-66
2022/07/12 11:59:34;;;;;;;;;;;;;;;29.70;30.76;91302.13;4994156;28;19913;-67
2022/07/12 12:02:18;;;;;;;;;;;;;;;28.49;32.22;91301.88;5011754;28;20284;-67
2022/07/12 12:05:01;;;;;;;;;;;;;;;29.07;31.41;91305.44;5011770;28;20439;-67
2022/07/12 12:07:26;;;;;;;;;;;;;;;31.35;27.94;91292.97;4993931;28;20299;-68
2022/07/12 12:09:59;;;;;;;;;;;;;;;29.96;30.26;91295.00;5011645;28;19921;-67
2022/07/12 12:12:24;;;;;;;;;;;;;;;29.17;30.57;91290.00;5011652;28;19981;-67
2022/07/12 12:14:49;;;;;;;;;;;;;;;27.21;32.57;91288.69;5011628;28;19996;-68
2022/07/12 12:17:15;;;;;;;;;;;;;;;26.31;34.52;91282.94;5011268;28;20000;-68
2022/07/12 12:19:43;;;;;;;;;;;;;;;25.53;36.14;91277.72;5011486;28;20004;-68
2022/07/12 12:22:47;;;;;;;;;;;;;;;26.76;34.31;91292.09;5011546;28;19917;-68
2022/07/12 12:25:13;;;;;;;;;;;;;;;28.19;33.70;91280.72;4932006;29;19954;-68
2022/07/12 12:27:42;;;;;;;;;;;;;;;28.37;35.13;91280.53;4931834;29;19921;-68
2022/07/12 12:30:08;;;;;;;;;;;;;;;29.67;31.76;91286.50;4970891;28;19917;-68
2022/07/12 12:32:43;;;;;;;;;;;;;;;28.26;34.14;91293.59;5011514;28;19917;-68
2022/07/12 12:35:09;;;;;;;;;;;;;;;28.02;32.70;91290.69;5011566;28;19975;-68
2022/07/12 12:37:35;;;;;;;;;;;;;;;26.27;33.87;91293.09;5011289;28;20466;-67
2022/07/12 12:40:00;;;;;;;;;;;;;;;26.67;34.30;91290.97;5011484;28;19913;-67
2022/07/12 12:42:26;;;;;;;;;;;;;;;26.42;35.08;91286.44;5013051;28;20449;-68
2022/07/12 12:44:51;;;;;;;;;;;;;;;28.26;35.18;91279.91;5015076;28;20449;-66
2022/07/12 12:47:32;;;;;;;;;;;;;;;28.53;33.53;91288.16;5014962;28;20012;-68
2022/07/12 12:49:59;;;;;;;;;;;;;;;27.60;32.11;91289.13;5015143;28;19921;-67
2022/07/12 12:52:25;;;;;;;;;;;;;;;28.78;31.96;91294.09;5014914;28;19971;-67
2022/07/12 12:54:51;;;;;;;;;;;;;;;29.27;29.83;91288.31;5014616;28;19917;-67